Aérodrome :
LOGIN :

S'inscrire | Disclaimer

   EN    FR    IT 

 










Légende :    VFR   VFR Marginal   IFR   IFR Intensif   IFR Très Intensif
Visi : 
Plafond : 
>= 8 km
>= 3000ft
5 à 8 km
1000 à 3000 ft
1500m à 5 km
500 à 1000 ft
800 à 1500m
200 à 500 ft
< 800m
< 200 ft
Symboles :   Orages  Brouillard  Fortes neiges  Fortes précipitations  Vent > 20 kt
SIGMETs :   Divers  Orages  Givrage  Turbulence  Onde Orograph.  Cendres Volcan.







- Altitude de l'aérodrome : 128 ft


ETND - Diepholz

DERNIER METAR :
  • 161420Z 27018G28KT 9999 -SHRA FEW009 FEW015CB SCT023 04/01 Q0990 BLU+

METARs EXPIRÉS :
  • 161402Z 27014KT 9999 VCSH FEW013CB BKN017 04/01 Q0990 WHT FCST CANCEL
  • 161344Z 27015KT 9999 VCSH FEW013CB BKN017 04/01 Q0989 WHT BLU TEMPO GRN
  • 161320Z 28016KT 9999 VCSH FEW009 SCT013CB 04/01 Q0989 BLU+BLU TEMPO GRN
  • 161306Z 27015KT 9999 VCSH FEW008 SCT013CB 04/02 Q0989 BLU+BLU TEMPO GRN

TAF AMD TAF ETND
Valide du 16 à 14h jusqu'au 16 à 21h UTC


161400Z 1614/1621 25012KT 9999 NSW SCT020 BKN030
TEMPO 1614/1621 25015G25KT 4000 SHRA BKN008 BKN015TCU
PROB30 1614/1621 26015G35KT 3000 TSRA BKN005 BKN010CB CANCEL BY ETGL
Pas de NOTAMs connus pour ce terrain.



MET'MAP, la Météo Aéronautique d'un coup d'oeil ! - Copyright ORBIFLY Décembre 2007 - Disclaimer

ORBIFLY MET'MAP TEAM :

Programmation & Développement : Alexandra Zaïnal
Conception & Développement : Baudouin d'Aumeries
Co-Programmation & Développement : Marc-Olivier Méhu
Soutien technique & logistique : Manuel Goepfert

Contact : metmap@orbifly.com




SOURCES & CREDITS :

   NOAA